Time;durP1;ratioP1;P1;durP2;ratioP2;P2;SDS_P1;SDS_P2;PMS_P1;PMS_P2;Temp;Humidity;BMP_temperature;BMP_pressure;BME280_temperature;BME280_humidity;BME280_pressure;Samples;Min_cycle;Max_cycle;Signal;HPM_P1;HPM_P2
2021/05/08 00:00:11;;;;;;;6.17;2.15;;;;;;;14.30;64.36;100486.02;1791458;79;20923;-77
2021/05/08 00:02:43;;;;;;;7.50;2.67;;;;;;;14.22;65.51;100483.61;1879258;75;21349;-78
2021/05/08 00:05:13;;;;;;;4.58;2.60;;;;;;;13.98;67.90;100475.30;1879174;76;20919;-77
2021/05/08 00:07:41;;;;;;;5.55;2.90;;;;;;;13.98;67.90;100475.30;1791415;78;21345;-77
2021/05/08 00:10:12;;;;;;;7.25;2.85;;;;;;;13.87;68.66;100473.52;1879216;75;20943;-76
2021/05/08 00:12:41;;;;;;;4.62;2.85;;;;;;;13.70;70.32;100462.58;1791462;78;21093;-76
2021/05/08 00:15:10;;;;;;;6.22;2.50;;;;;;;13.62;70.74;100467.09;1879268;76;21760;-78
2021/05/08 00:17:39;;;;;;;5.40;2.47;;;;;;;13.62;70.74;100467.09;1791279;79;21088;-77
2021/05/08 00:20:12;;;;;;;2.70;2.50;;;;;;;13.53;71.37;100461.20;1879202;75;21452;-79
2021/05/08 00:22:41;;;;;;;7.78;2.42;;;;;;;13.45;71.88;100473.61;1791693;79;21478;-77
2021/05/08 00:25:11;;;;;;;4.75;3.22;;;;;;;13.42;72.32;100465.95;1879245;75;20947;-77
2021/05/08 00:27:39;;;;;;;5.17;2.45;;;;;;;13.39;72.56;100459.59;1879246;75;22418;-80
2021/05/08 00:30:10;;;;;;;5.65;3.35;;;;;;;13.36;72.71;100465.08;1848457;76;21009;-78
2021/05/08 00:32:38;;;;;;;5.20;3.17;;;;;;;13.32;73.02;100461.84;1791318;78;21002;-79
2021/05/08 00:35:09;;;;;;;8.18;3.42;;;;;;;13.33;73.16;100466.63;1879902;76;20994;-78
2021/05/08 00:37:38;;;;;;;4.00;2.52;;;;;;;13.32;73.30;100474.16;1794584;78;20986;-78
2021/05/08 00:40:08;;;;;;;6.83;2.67;;;;;;;13.32;73.44;100471.06;1879711;76;22357;-78
2021/05/08 00:42:38;;;;;;;5.45;2.85;;;;;;;13.32;73.58;100468.88;1791800;80;21014;-78
2021/05/08 00:45:08;;;;;;;6.12;3.52;;;;;;;13.31;73.82;100460.16;1879538;75;20940;-78
2021/05/08 00:47:49;;;;;;;7.20;3.37;;;;;;;13.32;74.14;100461.84;1849301;76;21018;-78
2021/05/08 00:50:19;;;;;;;6.50;3.92;;;;;;;13.33;74.32;100461.36;1773646;77;20998;-79
2021/05/08 00:52:47;;;;;;;10.88;3.92;;;;;;;13.30;74.64;100450.59;1882027;75;21357;-77
2021/05/08 00:55:15;;;;;;;5.60;4.37;;;;;;;13.29;74.46;100429.63;1807220;77;20937;-76
2021/05/08 00:57:46;;;;;;;5.45;3.80;;;;;;;13.29;74.37;100430.94;1807944;79;21174;-79
2021/05/08 01:00:15;;;;;;;4.20;3.37;;;;;;;13.27;74.28;100416.08;1803801;78;20919;-77
2021/05/08 01:02:45;;;;;;;4.78;3.67;;;;;;;13.28;74.21;100405.09;1837178;78;20900;-77
2021/05/08 01:05:15;;;;;;;6.20;3.95;;;;;;;13.28;74.06;100412.98;1837168;78;21383;-78
2021/05/08 01:07:43;;;;;;;4.97;3.45;;;;;;;13.27;73.97;100418.70;1804302;79;21036;-76
2021/05/08 01:10:13;;;;;;;5.72;3.33;;;;;;;13.26;73.69;100409.11;1808384;79;20928;-78
2021/05/08 01:12:43;;;;;;;6.78;4.53;;;;;;;13.27;73.80;100405.99;1806607;78;20878;-77
2021/05/08 01:15:13;;;;;;;7.22;3.95;;;;;;;13.25;74.06;100404.81;1810683;79;20900;-78
2021/05/08 01:17:42;;;;;;;7.35;2.85;;;;;;;13.26;74.17;100403.01;1806526;79;21189;-78
2021/05/08 01:20:13;;;;;;;4.45;2.92;;;;;;;13.27;74.36;100397.64;1838462;78;20920;-78
2021/05/08 01:22:43;;;;;;;4.65;3.75;;;;;;;13.26;74.49;100395.94;1837797;78;20924;-76
2021/05/08 01:25:22;;;;;;;9.23;3.45;;;;;;;13.25;74.26;100387.69;1836912;78;20938;-78
2021/05/08 01:27:54;;;;;;;3.72;2.70;;;;;;;13.26;74.11;100381.45;1803943;79;20889;-77
2021/05/08 01:30:28;;;;;;;3.98;3.40;;;;;;;13.29;73.88;100361.98;1807482;79;21167;-76
2021/05/08 01:32:57;;;;;;;6.22;2.77;;;;;;;13.30;73.72;100359.73;1803768;78;24037;-78
2021/05/08 01:35:28;;;;;;;4.80;3.27;;;;;;;13.32;73.93;100367.03;1836660;78;21046;-79
2021/05/08 01:37:56;;;;;;;6.60;3.17;;;;;;;13.34;73.91;100362.95;1803693;79;21024;-79
2021/05/08 01:40:29;;;;;;;4.78;2.92;;;;;;;13.34;73.90;100357.23;1807361;79;20924;-77
2021/05/08 01:42:58;;;;;;;5.15;3.95;;;;;;;13.36;73.88;100347.88;1803703;78;21824;-77
2021/05/08 01:45:28;;;;;;;6.60;3.95;;;;;;;13.37;73.96;100347.77;1807247;79;21034;-77
2021/05/08 01:47:59;;;;;;;9.70;4.95;;;;;;;13.38;73.78;100350.74;1803651;78;20910;-78
2021/05/08 01:50:29;;;;;;;7.55;5.47;;;;;;;13.37;73.70;100339.03;1807354;79;20971;-78
2021/05/08 01:52:58;;;;;;;8.73;4.50;;;;;;;13.36;73.60;100340.83;1803571;78;20962;-76
2021/05/08 01:55:27;;;;;;;8.73;4.60;;;;;;;13.35;73.39;100336.50;1836537;78;21188;-77
2021/05/08 01:57:58;;;;;;;7.55;4.42;;;;;;;13.34;73.15;100336.16;1803749;79;21020;-77
2021/05/08 02:00:35;;;;;;;8.60;4.40;;;;;;;13.33;72.90;100334.46;1807565;79;20919;-78
2021/05/08 02:03:05;;;;;;;8.45;4.67;;;;;;;13.34;72.61;100333.52;1803959;78;21348;-77
2021/05/08 02:05:39;;;;;;;7.50;4.90;;;;;;;13.36;72.38;100325.03;1836723;78;21389;-78
2021/05/08 02:08:11;;;;;;;9.58;5.05;;;;;;;13.38;71.82;100326.20;1803593;79;20949;-76
2021/05/08 02:10:43;;;;;;;11.83;5.65;;;;;;;13.39;71.96;100322.63;1809248;79;20940;-77
2021/05/08 02:13:13;;;;;;;6.55;4.83;;;;;;;13.40;71.37;100313.77;1805469;78;20922;-78
2021/05/08 02:15:43;;;;;;;10.38;4.75;;;;;;;13.41;71.07;100329.94;1807521;79;20947;-76
2021/05/08 02:18:12;;;;;;;10.35;4.60;;;;;;;13.41;71.07;100329.94;1803798;78;20867;-79
2021/05/08 02:20:43;;;;;;;11.05;4.72;;;;;;;13.41;71.19;100325.98;1836545;78;21252;-78
2021/05/08 02:23:14;;;;;;;11.88;5.00;;;;;;;13.42;71.16;100335.07;1804205;79;20953;-78
2021/05/08 02:25:45;;;;;;;9.50;5.70;;;;;;;13.43;71.13;100334.62;1807550;79;20939;-77
2021/05/08 02:28:13;;;;;;;11.85;7.28;;;;;;;13.43;71.17;100342.52;1804462;78;20899;-76
2021/05/08 02:30:42;;;;;;;8.88;6.35;;;;;;;13.44;71.30;100352.09;1838486;78;20919;-79
2021/05/08 02:33:11;;;;;;;11.60;6.55;;;;;;;13.44;71.53;100345.50;1806306;79;21136;-79
2021/05/08 02:35:40;;;;;;;11.85;6.42;;;;;;;13.44;71.63;100333.64;1809959;79;20951;-78
2021/05/08 02:38:09;;;;;;;11.50;6.53;;;;;;;13.45;71.73;100329.59;1805827;78;21423;-77
2021/05/08 02:40:38;;;;;;;11.88;5.83;;;;;;;13.45;71.91;100329.59;1810008;79;20999;-78
2021/05/08 02:43:10;;;;;;;10.85;5.58;;;;;;;13.45;71.91;100329.59;1805892;79;20996;-79
2021/05/08 02:45:40;;;;;;;7.53;6.03;;;;;;;13.46;72.09;100324.66;1808971;79;21204;-77
2021/05/08 02:48:09;;;;;;;10.23;6.92;;;;;;;13.47;72.10;100322.86;1804190;78;21097;-78
2021/05/08 02:50:39;;;;;;;11.73;7.05;;;;;;;13.47;72.27;100330.77;1836764;78;20991;-76
2021/05/08 02:53:09;;;;;;;9.65;6.20;;;;;;;13.46;72.37;100328.62;1839560;77;21038;-76
2021/05/08 02:55:38;;;;;;;8.38;5.83;;;;;;;13.45;72.30;100329.59;1839864;78;20981;-78
2021/05/08 02:58:09;;;;;;;9.73;5.83;;;;;;;13.44;72.46;100324.42;1805982;79;21605;-78
2021/05/08 03:00:40;;;;;;;14.23;5.92;;;;;;;13.41;72.52;100310.19;1809128;79;21027;-79
2021/05/08 03:03:12;;;;;;;9.08;6.17;;;;;;;13.40;72.58;100301.42;1804287;78;20906;-77
2021/05/08 03:07:21;;;;;;;8.88;6.55;;;;;;;13.46;72.40;100291.73;1813882;77;22466;-78
2021/05/08 03:09:50;;;;;;;11.12;6.03;;;;;;;13.42;72.41;100303.46;1784666;79;21384;-78
2021/05/08 03:12:18;;;;;;;9.20;5.58;;;;;;;13.43;72.39;100303.02;1784713;80;21193;-79
2021/05/08 03:14:51;;;;;;;7.90;4.75;;;;;;;13.43;72.47;100295.11;1784613;80;21048;-79
2021/05/08 03:17:20;;;;;;;12.40;4.87;;;;;;;13.43;72.55;100303.84;1784678;79;20986;-78
2021/05/08 03:19:51;;;;;;;12.50;5.08;;;;;;;13.41;72.73;100307.06;1784537;79;21085;-80
2021/05/08 03:22:20;;;;;;;11.63;5.72;;;;;;;13.42;72.82;100305.27;1784487;80;21018;-79
2021/05/08 03:24:51;;;;;;;8.80;5.28;;;;;;;13.41;72.92;100312.83;1784329;79;21649;-76
2021/05/08 03:27:20;;;;;;;9.68;5.65;;;;;;;13.42;72.96;100314.48;1784370;79;21009;-77
2021/05/08 03:29:49;;;;;;;7.12;5.25;;;;;;;13.41;73.06;100314.14;1784421;79;21006;-78
2021/05/08 03:32:17;;;;;;;14.43;7.30;;;;;;;13.40;72.82;100311.95;1784292;80;20949;-79
2021/05/08 03:34:51;;;;;;;13.25;6.92;;;;;;;13.42;72.91;100311.36;1756059;80;20919;-76
2021/05/08 03:37:21;;;;;;;11.00;6.67;;;;;;;13.40;73.09;100308.49;1784331;79;21103;-78
2021/05/08 03:39:51;;;;;;;18.62;6.90;;;;;;;13.37;73.08;100314.84;1784461;80;20954;-76
2021/05/08 03:42:20;;;;;;;16.50;8.23;;;;;;;13.38;73.26;100316.98;1784226;80;20986;-75
2021/05/08 03:44:48;;;;;;;13.35;7.10;;;;;;;13.40;73.25;100317.23;1784247;79;21014;-75
2021/05/08 03:47:18;;;;;;;14.13;6.85;;;;;;;13.41;73.33;100312.34;1784226;80;21029;-75
2021/05/08 03:49:47;;;;;;;13.40;8.23;;;;;;;13.45;73.37;100315.10;1784257;80;21195;-76
2021/05/08 03:52:15;;;;;;;16.37;8.00;;;;;;;13.45;73.38;100324.77;1784233;80;20926;-74
2021/05/08 03:54:46;;;;;;;9.90;7.45;;;;;;;13.46;73.53;100325.98;1784446;80;21009;-78
2021/05/08 03:57:14;;;;;;;15.55;8.78;;;;;;;13.47;73.57;100329.45;1784282;79;20879;-76
2021/05/08 03:59:43;;;;;;;9.50;7.12;;;;;;;13.46;73.75;100319.40;1784369;80;20887;-77
2021/05/08 04:02:11;;;;;;;17.15;10.68;;;;;;;13.47;73.89;100322.86;1784108;80;21211;-77
2021/05/08 04:04:40;;;;;;;13.05;8.10;;;;;;;13.47;74.01;100327.67;1784371;79;21356;-78
2021/05/08 04:07:08;;;;;;;12.68;7.55;;;;;;;13.48;74.08;100316.66;1780191;80;21041;-76
2021/05/08 04:09:41;;;;;;;13.65;8.15;;;;;;;13.51;74.12;100324.31;1781001;80;21076;-76
2021/05/08 04:12:10;;;;;;;13.45;8.95;;;;;;;13.53;74.01;100315.81;1782352;80;21042;-77
2021/05/08 04:14:38;;;;;;;14.50;7.87;;;;;;;13.53;74.07;100310.55;1781898;80;21191;-75
2021/05/08 04:17:06;;;;;;;17.37;9.85;;;;;;;13.55;74.11;100303.84;1781919;79;20919;-74
2021/05/08 04:19:35;;;;;;;17.25;8.25;;;;;;;13.52;74.28;100309.33;1781687;80;20911;-74
2021/05/08 04:22:04;;;;;;;17.02;10.15;;;;;;;13.51;74.45;100316.89;1780342;80;20927;-76
2021/05/08 04:24:32;;;;;;;14.15;8.78;;;;;;;13.48;74.70;100309.58;1779346;79;20950;-78
2021/05/08 04:27:01;;;;;;;12.53;8.18;;;;;;;13.48;74.83;100314.85;1778862;80;21352;-76
2021/05/08 04:29:29;;;;;;;15.05;8.48;;;;;;;13.47;75.04;100305.28;1778619;80;20997;-77
2021/05/08 04:31:57;;;;;;;17.12;8.53;;;;;;;13.48;75.08;100309.58;1778757;80;20942;-76
2021/05/08 04:34:26;;;;;;;17.73;8.78;;;;;;;13.49;75.21;100299.88;1778875;80;21364;-76
2021/05/08 04:36:54;;;;;;;15.72;9.35;;;;;;;13.50;75.25;100293.67;1778828;80;20922;-75
2021/05/08 04:39:24;;;;;;;12.78;8.83;;;;;;;13.52;75.33;100287.80;1778760;80;21264;-77
2021/05/08 04:41:52;;;;;;;16.12;9.10;;;;;;;13.55;75.28;100280.97;1778616;80;21018;-77
2021/05/08 04:44:21;;;;;;;13.13;9.50;;;;;;;13.57;75.37;100280.38;1778773;80;21010;-77
2021/05/08 04:46:49;;;;;;;18.80;10.20;;;;;;;13.63;75.36;100277.75;1778712;79;21025;-76
2021/05/08 04:49:19;;;;;;;16.17;9.50;;;;;;;13.63;75.49;100275.95;1778876;79;20914;-76
2021/05/08 04:51:48;;;;;;;14.83;8.80;;;;;;;13.63;75.49;100275.95;1778799;80;21245;-77
2021/05/08 04:54:16;;;;;;;20.00;10.15;;;;;;;13.67;75.69;100280.48;1778747;80;20958;-76
2021/05/08 04:56:44;;;;;;;17.35;8.68;;;;;;;13.72;75.64;100272.20;1778658;80;20927;-75
2021/05/08 04:59:12;;;;;;;13.25;8.88;;;;;;;13.75;75.58;100274.13;1778748;79;21002;-78
2021/05/08 05:01:41;;;;;;;19.37;11.63;;;;;;;13.81;75.54;100271.51;1753174;80;20950;-78
2021/05/08 05:04:09;;;;;;;21.12;10.30;;;;;;;13.88;75.45;100266.10;1778634;80;21832;-78
2021/05/08 05:06:37;;;;;;;14.07;9.13;;;;;;;14.00;75.37;100273.50;1778541;79;21112;-77
2021/05/08 05:09:07;;;;;;;19.67;9.25;;;;;;;14.04;75.22;100265.22;1778530;80;21369;-78
2021/05/08 05:11:37;;;;;;;16.25;8.98;;;;;;;14.11;75.03;100268.20;1778688;79;21336;-78
2021/05/08 05:14:07;;;;;;;16.93;9.58;;;;;;;14.11;75.03;100268.20;1778650;79;20891;-79
2021/05/08 05:16:35;;;;;;;16.15;10.63;;;;;;;14.23;74.52;100258.00;1778568;80;21437;-75
2021/05/08 05:19:04;;;;;;;16.48;9.90;;;;;;;14.23;74.52;100258.00;1778481;80;20933;-76
2021/05/08 05:21:32;;;;;;;13.03;9.50;;;;;;;14.31;74.48;100256.04;1778583;80;20946;-77
2021/05/08 05:24:01;;;;;;;21.37;10.70;;;;;;;14.38;74.27;100255.06;1778600;80;21408;-76
2021/05/08 05:26:29;;;;;;;14.87;9.63;;;;;;;14.53;74.37;100265.67;1778660;80;20910;-76
2021/05/08 05:28:58;;;;;;;14.50;9.93;;;;;;;14.53;74.37;100265.67;1778645;80;21199;-76
2021/05/08 05:31:27;;;;;;;17.10;10.68;;;;;;;14.57;74.01;100269.77;1778560;80;21069;-77
2021/05/08 05:33:56;;;;;;;15.03;10.82;;;;;;;14.56;73.55;100264.13;1778704;80;21361;-76
2021/05/08 05:36:24;;;;;;;16.30;10.82;;;;;;;14.57;73.42;100251.30;1778695;79;20955;-77
2021/05/08 05:38:53;;;;;;;13.05;9.30;;;;;;;14.57;73.42;100251.30;1778740;80;20895;-76
2021/05/08 05:41:21;;;;;;;15.58;9.23;;;;;;;14.63;73.30;100259.17;1778621;79;21190;-79
2021/05/08 05:43:50;;;;;;;16.10;10.48;;;;;;;14.66;73.39;100259.77;1778623;80;21006;-77
2021/05/08 05:46:19;;;;;;;15.58;10.58;;;;;;;14.66;73.39;100259.77;1778705;79;20998;-77
2021/05/08 05:48:47;;;;;;;19.12;11.85;;;;;;;14.69;73.19;100259.99;1778645;80;20953;-78
2021/05/08 05:51:16;;;;;;;18.10;11.53;;;;;;;14.68;73.16;100260.97;1778687;80;20931;-76
2021/05/08 05:53:44;;;;;;;18.12;10.85;;;;;;;14.67;73.12;100264.56;1778757;80;21195;-76
2021/05/08 05:56:15;;;;;;;20.88;12.10;;;;;;;14.65;73.10;100263.39;1778809;79;20993;-77
2021/05/08 05:58:44;;;;;;;17.92;12.10;;;;;;;14.63;73.16;100268.41;1779286;79;20927;-78
2021/05/08 06:01:15;;;;;;;21.05;12.33;;;;;;;14.62;73.19;100266.27;1779822;80;20903;-77
2021/05/08 06:03:44;;;;;;;18.80;12.55;;;;;;;14.61;73.12;100259.81;1779788;80;21088;-77
2021/05/08 06:06:13;;;;;;;19.57;13.68;;;;;;;14.59;73.12;100251.19;1780062;80;21634;-77
2021/05/08 06:08:43;;;;;;;24.45;14.00;;;;;;;14.50;73.29;100247.47;1780723;79;20958;-77
2021/05/08 06:11:12;;;;;;;22.87;14.60;;;;;;;14.50;73.29;100247.47;1781220;80;21014;-77
2021/05/08 06:13:44;;;;;;;23.83;13.90;;;;;;;14.46;73.26;100237.64;1779962;80;21427;-78
2021/05/08 06:16:12;;;;;;;28.20;14.43;;;;;;;14.45;73.57;100244.35;1778898;80;21002;-79
2021/05/08 06:18:42;;;;;;;22.75;14.13;;;;;;;14.45;73.57;100244.35;1778801;80;20945;-79
2021/05/08 06:21:10;;;;;;;27.25;14.25;;;;;;;14.40;73.55;100237.30;1778723;79;21017;-79
2021/05/08 06:23:39;;;;;;;27.87;16.27;;;;;;;14.36;73.79;100240.70;1778644;79;21045;-78
2021/05/08 06:26:08;;;;;;;29.02;16.90;;;;;;;14.36;73.79;100240.70;1778770;80;20937;-80
2021/05/08 06:28:36;;;;;;;27.75;17.07;;;;;;;14.34;73.77;100233.39;1778940;80;20946;-77
2021/05/08 06:31:06;;;;;;;28.45;15.88;;;;;;;14.36;73.71;100231.92;1778987;80;21425;-80
2021/05/08 06:33:34;;;;;;;27.45;15.93;;;;;;;14.34;73.46;100228.56;1779077;80;20939;-79
2021/05/08 06:36:02;;;;;;;25.48;15.58;;;;;;;14.33;74.20;100233.02;1778615;80;20994;-77
2021/05/08 06:38:30;;;;;;;27.22;14.90;;;;;;;14.33;74.20;100233.02;1778683;79;20966;-75
2021/05/08 06:40:59;;;;;;;26.35;15.75;;;;;;;14.34;73.95;100233.39;1778954;80;20974;-80
2021/05/08 06:43:27;;;;;;;29.10;16.90;;;;;;;14.33;73.99;100233.02;1779264;79;20950;-77
2021/05/08 06:45:56;;;;;;;34.08;18.30;;;;;;;14.30;74.05;100216.96;1779827;80;20907;-77
2021/05/08 06:48:25;;;;;;;28.02;15.53;;;;;;;14.27;74.00;100213.73;1780140;79;20931;-75
2021/05/08 06:50:56;;;;;;;28.38;15.68;;;;;;;14.27;74.00;100193.95;1780217;80;20939;-71
2021/05/08 06:56:33;;;;;;;29.37;15.72;;;;;;;14.28;74.09;100189.87;1720999;78;21167;-69
2021/05/08 06:59:02;;;;;;;26.70;15.60;;;;;;;14.31;74.10;100193.56;1715726;82;21028;-68
2021/05/08 07:01:30;;;;;;;26.75;15.28;;;;;;;14.36;73.87;100186.62;1715754;82;21024;-69
2021/05/08 07:03:58;;;;;;;27.60;15.83;;;;;;;14.36;73.87;100186.62;1715811;82;21390;-68
2021/05/08 07:06:27;;;;;;;26.52;16.07;;;;;;;14.41;73.66;100197.62;1715547;83;20960;-69
2021/05/08 07:08:57;;;;;;;25.65;14.68;;;;;;;14.41;73.66;100197.62;1715735;83;21195;-68
2021/05/08 07:11:26;;;;;;;24.10;14.43;;;;;;;14.44;73.66;100207.91;1715713;83;20972;-69
2021/05/08 07:13:54;;;;;;;21.05;12.78;;;;;;;14.44;73.79;100209.71;1715806;82;20964;-69
2021/05/08 07:16:22;;;;;;;20.68;13.85;;;;;;;14.44;73.78;100213.18;1715719;82;21011;-68
2021/05/08 07:18:50;;;;;;;21.37;11.73;;;;;;;14.44;73.90;100212.34;1715750;82;20972;-69
2021/05/08 07:21:18;;;;;;;20.12;12.13;;;;;;;14.44;73.87;100208.39;1715741;82;21364;-70
2021/05/08 07:23:48;;;;;;;18.35;13.05;;;;;;;14.45;73.79;100204.31;1715669;82;21390;-70
2021/05/08 07:26:16;;;;;;;17.40;12.05;;;;;;;14.45;73.75;100188.95;1715674;83;20929;-68
2021/05/08 07:28:44;;;;;;;20.88;11.30;;;;;;;14.43;73.87;100197.01;1715694;82;20944;-71
2021/05/08 07:31:12;;;;;;;20.70;12.05;;;;;;;14.41;74.04;100196.30;1715735;82;21004;-71
2021/05/08 07:33:41;;;;;;;28.40;11.43;;;;;;;14.47;74.15;100208.12;1715574;83;21818;-72
2021/05/08 07:36:09;;;;;;;20.55;10.82;;;;;;;14.51;74.32;100202.47;1715843;83;21023;-71
2021/05/08 07:38:49;;;;;;;20.27;12.33;;;;;;;14.61;74.12;100199.12;1715803;82;20964;-72
2021/05/08 07:41:25;;;;;;;20.50;12.75;;;;;;;14.73;74.03;100220.50;1715720;83;20995;-70
2021/05/08 07:43:54;;;;;;;25.15;14.65;;;;;;;14.93;73.91;100223.62;1715893;83;20964;-71
2021/05/08 07:46:22;;;;;;;23.90;15.18;;;;;;;15.19;73.19;100194.16;1715869;83;21116;-71
2021/05/08 07:48:50;;;;;;;26.97;13.88;;;;;;;15.19;73.19;100194.16;1715707;82;21086;-71
2021/05/08 07:51:19;;;;;;;16.87;11.78;;;;;;;15.27;72.83;100208.02;1715761;82;21101;-72
2021/05/08 07:53:47;;;;;;;42.48;16.48;;;;;;;15.28;72.38;100209.70;1715847;83;20952;-70
2021/05/08 07:56:15;;;;;;;26.27;11.53;;;;;;;15.27;72.51;100194.80;1715820;82;20992;-71
2021/05/08 07:58:43;;;;;;;21.15;13.43;;;;;;;15.29;72.69;100195.50;1713015;82;21423;-70
2021/05/08 08:01:14;;;;;;;21.68;13.60;;;;;;;15.33;72.53;100207.48;1713254;82;21040;-71
2021/05/08 08:04:05;;;;;;;21.75;13.35;;;;;;;15.34;72.51;100195.47;1710092;83;21477;-71
2021/05/08 08:06:34;;;;;;;22.00;14.43;;;;;;;15.40;72.36;100195.90;1713278;82;21500;-70
2021/05/08 08:09:02;;;;;;;23.00;14.30;;;;;;;15.48;72.32;100190.80;1713306;82;21004;-71
2021/05/08 08:11:31;;;;;;;23.52;13.58;;;;;;;15.58;72.29;100184.20;1685475;82;21275;-71
2021/05/08 08:13:59;;;;;;;23.60;14.07;;;;;;;15.66;72.26;100188.34;1713304;83;21497;-72
2021/05/08 08:16:29;;;;;;;20.35;13.48;;;;;;;15.69;72.46;100162.45;1713198;82;20952;-72
2021/05/08 08:18:57;;;;;;;23.18;14.58;;;;;;;15.78;72.31;100176.69;1685806;83;20953;-71
2021/05/08 08:21:25;;;;;;;26.62;14.23;;;;;;;15.86;72.23;100176.02;1713148;82;21517;-73
2021/05/08 08:23:54;;;;;;;18.52;12.78;;;;;;;15.93;71.58;100171.36;1713253;82;21804;-71
2021/05/08 08:26:23;;;;;;;19.30;11.18;;;;;;;16.00;71.46;100181.39;1713233;83;20941;-71
2021/05/08 08:28:51;;;;;;;21.12;12.03;;;;;;;16.05;71.27;100181.80;1713262;82;21024;-69
2021/05/08 08:31:19;;;;;;;22.87;11.35;;;;;;;16.08;71.52;100195.60;1713180;82;21012;-72
2021/05/08 08:33:47;;;;;;;17.32;11.18;;;;;;;16.09;71.73;100206.52;1713289;83;20941;-72
2021/05/08 08:36:17;;;;;;;17.85;12.15;;;;;;;16.05;72.38;100220.16;1713324;83;21785;-71
2021/05/08 08:38:47;;;;;;;23.75;13.65;;;;;;;15.99;72.80;100207.02;1713243;82;20992;-70
2021/05/08 08:41:15;;;;;;;27.42;13.00;;;;;;;15.92;73.13;100217.30;1713266;82;20960;-69
2021/05/08 08:43:46;;;;;;;22.40;12.40;;;;;;;15.84;73.74;100222.91;1713246;83;20961;-70
2021/05/08 08:46:15;;;;;;;20.77;14.18;;;;;;;15.75;74.39;100225.39;1713344;82;20949;-71
2021/05/08 08:48:44;;;;;;;12.63;8.43;;;;;;;15.69;74.98;100233.00;1713296;83;21375;-70
2021/05/08 08:51:16;;;;;;;12.63;6.65;;;;;;;15.67;75.33;100237.58;1713318;83;21024;-70
2021/05/08 08:53:44;;;;;;;12.10;7.30;;;;;;;15.63;75.12;100227.78;1713433;82;21513;-71
2021/05/08 08:56:14;;;;;;;8.60;7.47;;;;;;;15.58;75.36;100239.22;1713258;82;21011;-71
2021/05/08 08:58:44;;;;;;;7.50;5.95;;;;;;;15.50;75.82;100244.35;1708767;82;20997;-72
2021/05/08 09:01:14;;;;;;;9.48;6.47;;;;;;;15.50;75.82;100244.35;1708009;83;21372;-71
2021/05/08 09:03:43;;;;;;;9.38;5.60;;;;;;;15.49;76.14;100255.88;1707905;82;21520;-72
2021/05/08 09:06:11;;;;;;;9.45;5.85;;;;;;;15.47;76.56;100249.88;1707889;83;21012;-73
2021/05/08 09:08:41;;;;;;;8.10;5.00;;;;;;;15.46;76.74;100253.52;1707888;82;21044;-69
2021/05/08 09:11:23;;;;;;;11.20;6.28;;;;;;;15.47;76.87;100247.24;1707206;82;21059;-71
2021/05/08 09:14:23;;;;;;;12.03;5.78;;;;;;;15.52;77.00;100256.95;1672667;84;21299;-70
2021/05/08 09:17:17;;;;;;;16.65;9.93;;;;;;;15.61;77.58;100259.28;1643922;86;21122;-86
2021/05/08 09:19:59;;;;;;;7.97;5.95;;;;;;;15.77;77.39;100250.87;1706563;82;21052;-75
2021/05/08 09:22:36;;;;;;;10.18;6.10;;;;;;;15.95;77.32;100247.43;1706738;83;21032;-76
2021/05/08 09:25:11;;;;;;;8.10;5.92;;;;;;;16.11;77.00;100248.72;1707973;84;21695;-72
2021/05/08 09:27:56;;;;;;;12.07;6.10;;;;;;;16.21;76.48;100250.03;1708645;84;21157;-75
2021/05/08 09:30:30;;;;;;;11.00;6.75;;;;;;;16.23;75.90;100230.43;1709868;82;21080;-78
2021/05/08 09:33:04;;;;;;;10.43;7.37;;;;;;;16.27;75.97;100236.27;1709622;83;21056;-77
2021/05/08 09:35:34;;;;;;;13.22;5.85;;;;;;;16.36;75.83;100232.78;1709376;82;21573;-71
2021/05/08 09:38:11;;;;;;;9.20;5.40;;;;;;;16.36;75.83;100232.78;1708275;82;21024;-75
2021/05/08 09:40:45;;;;;;;7.33;5.00;;;;;;;16.41;75.90;100238.52;1709904;82;21464;-76
2021/05/08 09:43:18;;;;;;;8.20;4.47;;;;;;;16.49;75.50;100249.72;1709810;82;20992;-74
2021/05/08 09:45:47;;;;;;;6.25;4.50;;;;;;;16.51;75.29;100261.83;1710102;82;20929;-78
2021/05/08 09:48:21;;;;;;;7.37;5.35;;;;;;;16.51;75.52;100258.36;1709517;82;20921;-76
2021/05/08 09:50:51;;;;;;;11.53;5.28;;;;;;;16.53;75.41;100246.65;1706803;83;20976;-70
2021/05/08 09:53:31;;;;;;;10.78;5.83;;;;;;;16.52;75.22;100227.78;1707985;84;21794;-73
2021/05/08 09:55:59;;;;;;;5.25;4.62;;;;;;;16.55;75.43;100220.05;1707923;83;21498;-71
2021/05/08 09:58:28;;;;;;;9.40;5.50;;;;;;;16.54;75.11;100213.06;1707924;82;20957;-72
2021/05/08 10:00:56;;;;;;;9.78;4.70;;;;;;;16.50;75.03;100219.14;1707872;82;20961;-70
2021/05/08 10:03:24;;;;;;;6.67;4.95;;;;;;;16.48;74.85;100214.97;1707974;82;20941;-72
2021/05/08 10:06:08;;;;;;;8.80;6.22;;;;;;;16.47;74.88;100200.05;1707909;83;21479;-70
2021/05/08 10:08:39;;;;;;;7.65;5.25;;;;;;;16.48;74.76;100194.62;1708109;82;21410;-76
2021/05/08 10:11:08;;;;;;;8.25;4.37;;;;;;;16.51;74.49;100190.36;1707939;83;20981;-77
2021/05/08 10:13:36;;;;;;;7.78;5.40;;;;;;;16.54;74.32;100182.63;1708076;82;20973;-75
2021/05/08 10:16:05;;;;;;;8.63;5.17;;;;;;;16.55;73.99;100196.22;1707924;83;20909;-77
2021/05/08 10:18:34;;;;;;;27.67;20.82;;;;;;;16.54;73.77;100218.36;1707870;82;21265;-77
2021/05/08 10:21:03;;;;;;;12.03;5.95;;;;;;;16.49;73.68;100235.16;1673743;85;21036;-76
2021/05/08 10:23:33;;;;;;;11.73;7.33;;;;;;;16.42;73.23;100241.99;1662770;85;21072;-72
2021/05/08 10:26:03;;;;;;;5.72;3.52;;;;;;;16.28;72.71;100249.37;1669190;86;21048;-79
2021/05/08 10:28:31;;;;;;;5.75;4.53;;;;;;;16.28;72.71;100249.37;1707857;82;21052;-70
2021/05/08 10:30:59;;;;;;;5.95;3.75;;;;;;;16.21;72.65;100253.55;1707827;82;21101;-68
2021/05/08 10:33:29;;;;;;;6.50;3.90;;;;;;;16.16;72.56;100252.64;1707795;84;21059;-71
2021/05/08 10:35:58;;;;;;;6.62;4.30;;;;;;;16.10;72.33;100254.99;1707836;82;20976;-65
2021/05/08 10:38:27;;;;;;;8.63;4.12;;;;;;;16.03;73.00;100251.20;1687722;84;20960;-68
2021/05/08 10:41:05;;;;;;;6.85;4.62;;;;;;;15.98;73.14;100252.92;1707955;84;20929;-70
2021/05/08 10:43:57;;;;;;;6.90;4.03;;;;;;;15.92;73.51;100254.33;1707954;84;22382;-69
2021/05/08 10:46:28;;;;;;;5.70;3.83;;;;;;;15.87;74.06;100251.72;1707768;82;20987;-71
2021/05/08 10:49:14;;;;;;;6.72;4.58;;;;;;;15.79;74.61;100259.02;1707882;82;20929;-67
2021/05/08 10:51:59;;;;;;;10.75;3.58;;;;;;;15.73;75.01;100235.27;1707735;82;20914;-66
2021/05/08 10:54:43;;;;;;;7.20;3.85;;;;;;;15.69;74.73;100232.50;1708025;82;21091;-65
2021/05/08 10:57:24;;;;;;;8.23;4.47;;;;;;;15.60;74.26;100214.81;1707877;82;21887;-70
2021/05/08 11:00:08;;;;;;;7.25;3.92;;;;;;;15.57;74.14;100208.97;1721356;82;20980;-67
2021/05/08 11:02:48;;;;;;;6.03;4.10;;;;;;;15.53;74.24;100203.94;1721410;82;21055;-64
2021/05/08 11:05:31;;;;;;;10.75;6.75;;;;;;;15.50;74.37;100212.64;1721361;82;21082;-66
2021/05/08 11:07:59;;;;;;;16.23;9.65;;;;;;;15.47;74.94;100212.89;1721377;82;21047;-66
2021/05/08 11:10:39;;;;;;;16.20;11.43;;;;;;;15.44;74.70;100208.70;1721457;82;21201;-64
2021/05/08 11:13:14;;;;;;;7.08;5.55;;;;;;;15.43;75.01;100206.19;1721405;82;20964;-66
2021/05/08 11:16:03;;;;;;;9.85;7.03;;;;;;;15.43;75.01;100206.19;1721420;82;21019;-69
2021/05/08 11:18:35;;;;;;;8.58;5.72;;;;;;;15.48;75.28;100211.94;1721081;83;21126;-67
2021/05/08 11:21:18;;;;;;;6.83;5.08;;;;;;;15.52;75.47;100201.45;1721431;82;21027;-70
2021/05/08 11:23:57;;;;;;;6.28;4.62;;;;;;;15.58;75.56;100198.73;1721378;82;22394;-68
2021/05/08 11:26:32;;;;;;;8.00;4.65;;;;;;;15.65;75.05;100199.86;1721351;82;20976;-68
2021/05/08 11:29:20;;;;;;;8.28;4.90;;;;;;;15.88;74.77;100189.45;1721659;82;21783;-66
2021/05/08 11:31:54;;;;;;;4.55;3.58;;;;;;;15.88;74.77;100189.45;1719712;82;21480;-66
2021/05/08 11:34:30;;;;;;;6.40;3.87;;;;;;;16.13;74.79;100184.60;1721827;83;20929;-67
2021/05/08 11:37:01;;;;;;;5.17;3.55;;;;;;;16.40;74.89;100185.22;1721649;82;22290;-66